createdAt,value
2022-12-03T00:00:35.606Z,102343.38
2022-12-03T00:03:02.444Z,102350.44
2022-12-03T00:05:29.149Z,102342.44
2022-12-03T00:07:55.768Z,102339.28
2022-12-03T00:10:22.332Z,102329.78
2022-12-03T00:12:48.829Z,102340.59
2022-12-03T00:15:15.436Z,102339.97
2022-12-03T00:17:41.970Z,102334.03
2022-12-03T00:20:09.830Z,102336.59
2022-12-03T00:22:36.347Z,102324.53
2022-12-03T00:25:02.950Z,102330.47
2022-12-03T00:27:29.488Z,102328.50
2022-12-03T00:29:55.991Z,102314.22
2022-12-03T00:32:22.469Z,102322.38
2022-12-03T00:34:48.986Z,102316.84
2022-12-03T00:37:15.560Z,102322.38
2022-12-03T00:39:42.097Z,102323.25
2022-12-03T00:42:08.583Z,102323.25
2022-12-03T00:44:35.205Z,102327.63
2022-12-03T00:47:01.882Z,102317.00
2022-12-03T00:49:28.376Z,102321.09
2022-12-03T00:51:54.856Z,102313.00
2022-12-03T00:54:22.786Z,102327.19
2022-12-03T00:56:52.076Z,102317.53
2022-12-03T00:59:18.627Z,102316.69
2022-12-03T01:01:45.182Z,102314.69
2022-12-03T01:04:11.829Z,102319.22
2022-12-03T01:06:38.654Z,102315.38
2022-12-03T01:09:05.290Z,102319.22
2022-12-03T01:11:37.396Z,102320.41
2022-12-03T01:14:05.955Z,102322.38
2022-12-03T01:16:32.921Z,102310.16
2022-12-03T01:18:59.541Z,102315.69
2022-12-03T01:21:26.055Z,102306.06
2022-12-03T01:23:52.598Z,102311.47
2022-12-03T01:26:19.138Z,102315.00
2022-12-03T01:28:45.596Z,102320.53
2022-12-03T01:31:30.771Z,102316.84
2022-12-03T01:33:57.379Z,102308.03
2022-12-03T01:36:24.013Z,102310.59
2022-12-03T01:38:50.547Z,102311.28
2022-12-03T01:41:18.981Z,102310.75
2022-12-03T01:43:46.061Z,102309.59
2022-12-03T01:46:16.560Z,102309.44
2022-12-03T01:48:43.672Z,102298.81
2022-12-03T01:51:10.211Z,102300.50
2022-12-03T01:53:36.853Z,102306.19
2022-12-03T01:56:04.222Z,102303.38
2022-12-03T01:58:31.164Z,102305.97
2022-12-03T02:01:01.513Z,102305.22
2022-12-03T02:03:28.575Z,102307.06
2022-12-03T02:05:56.827Z,102302.50
2022-12-03T02:08:37.620Z,102305.88
2022-12-03T02:11:22.267Z,102296.41
2022-12-03T02:13:52.742Z,102304.97
2022-12-03T02:16:19.304Z,102302.34
2022-12-03T02:18:46.030Z,102304.22
2022-12-03T02:21:31.099Z,102303.72
2022-12-03T02:24:24.814Z,102298.50
2022-12-03T02:26:51.345Z,102298.41
2022-12-03T02:29:17.904Z,102287.19
2022-12-03T02:31:44.678Z,102293.03
2022-12-03T02:34:11.623Z,102294.03
2022-12-03T02:36:39.049Z,102293.88
2022-12-03T02:39:05.985Z,102286.91
2022-12-03T02:41:51.246Z,102284.09
2022-12-03T02:44:17.750Z,102277.84
2022-12-03T02:46:44.264Z,102280.72
2022-12-03T02:49:10.902Z,102290.09
2022-12-03T02:51:37.702Z,102279.84
2022-12-03T02:54:04.461Z,102279.22
2022-12-03T02:56:32.573Z,102291.88
2022-12-03T02:59:02.941Z,102287.94
2022-12-03T03:01:29.660Z,102281.25
2022-12-03T03:03:56.752Z,102276.84
2022-12-03T03:06:23.455Z,102264.59
2022-12-03T03:08:50.160Z,102287.78
2022-12-03T03:11:16.806Z,102277.31
2022-12-03T03:13:43.728Z,102266.50
2022-12-03T03:16:10.484Z,102276.84
2022-12-03T03:18:37.103Z,102270.75
2022-12-03T03:21:04.272Z,102274.47
2022-12-03T03:23:30.819Z,102273.25
2022-12-03T03:26:02.550Z,102272.44
2022-12-03T03:28:30.302Z,102266.19
2022-12-03T03:31:00.519Z,102263.50
2022-12-03T03:33:27.534Z,102265.53
2022-12-03T03:35:54.526Z,102268.22
2022-12-03T03:38:22.682Z,102258.56
2022-12-03T03:40:51.186Z,102266.13
2022-12-03T03:43:18.387Z,102257.06
2022-12-03T03:45:45.081Z,102251.31
2022-12-03T03:48:13.011Z,102253.16
2022-12-03T03:50:39.954Z,102245.25
2022-12-03T03:53:06.780Z,102239.16
2022-12-03T03:55:34.540Z,102248.63
2022-12-03T03:58:01.198Z,102253.88
2022-12-03T04:00:27.935Z,102255.88
2022-12-03T04:02:54.427Z,102250.34
2022-12-03T04:05:23.611Z,102252.19
2022-12-03T04:07:50.868Z,102247.63
2022-12-03T04:10:38.054Z,102246.66
2022-12-03T04:13:05.604Z,102247.78
2022-12-03T04:15:32.110Z,102244.78
2022-12-03T04:18:17.166Z,102240.72
2022-12-03T04:20:43.770Z,102238.00
2022-12-03T04:23:10.359Z,102242.38
2022-12-03T04:25:55.800Z,102252.50
2022-12-03T04:28:41.132Z,102238.16
2022-12-03T04:31:26.386Z,102244.94
2022-12-03T04:34:11.757Z,102231.06
2022-12-03T04:36:38.432Z,102220.19
2022-12-03T04:39:07.044Z,102236.72
2022-12-03T04:41:33.584Z,102238.47
2022-12-03T04:44:18.453Z,102232.75
2022-12-03T04:46:44.938Z,102244.41
2022-12-03T04:49:12.609Z,102235.31
2022-12-03T04:51:39.176Z,102235.31
2022-12-03T04:54:05.764Z,102236.06
2022-12-03T04:56:32.300Z,102231.59
2022-12-03T04:58:58.772Z,102231.59
2022-12-03T05:01:25.319Z,102227.06
2022-12-03T05:03:51.918Z,102225.53
2022-12-03T05:06:18.384Z,102232.38
2022-12-03T05:08:44.849Z,102227.06
2022-12-03T05:11:11.433Z,102234.91
2022-12-03T05:13:37.957Z,102215.38
2022-12-03T05:16:04.514Z,102235.31
2022-12-03T05:18:30.974Z,102228.22
2022-12-03T05:20:57.492Z,102229.06
2022-12-03T05:23:24.774Z,102233.56
2022-12-03T05:25:51.505Z,102228.38
2022-12-03T05:28:18.039Z,102231.59
2022-12-03T05:30:44.604Z,102221.13
2022-12-03T05:33:11.097Z,102223.50
2022-12-03T05:35:37.561Z,102216.59
2022-12-03T05:38:04.144Z,102224.69
2022-12-03T05:40:30.633Z,102209.81
2022-12-03T05:42:57.251Z,102214.06
2022-12-03T05:45:30.923Z,102218.44
2022-12-03T05:47:58.804Z,102210.66
2022-12-03T05:50:27.295Z,102210.66
2022-12-03T05:52:54.655Z,102206.97
2022-12-03T05:55:21.234Z,102204.41
2022-12-03T05:57:48.045Z,102210.66
2022-12-03T06:00:20.640Z,102208.66
2022-12-03T06:02:47.747Z,102201.88
2022-12-03T06:05:15.685Z,102210.66
2022-12-03T06:07:42.667Z,102210.66
2022-12-03T06:10:11.548Z,102208.94
2022-12-03T06:12:38.215Z,102207.44
2022-12-03T06:15:05.655Z,102212.69
2022-12-03T06:17:32.128Z,102205.41
2022-12-03T06:19:58.634Z,102210.97
2022-12-03T06:22:25.202Z,102213.50
2022-12-03T06:24:52.096Z,102214.66
2022-12-03T06:27:19.194Z,102204.72
2022-12-03T06:29:45.737Z,102210.44
2022-12-03T06:32:12.341Z,102208.59
2022-12-03T06:34:38.858Z,102213.81
2022-12-03T06:37:05.561Z,102206.56
2022-12-03T06:39:32.113Z,102203.88
2022-12-03T06:42:01.428Z,102202.50
2022-12-03T06:44:27.959Z,102196.25
2022-12-03T06:46:54.541Z,102201.50
2022-12-03T06:49:21.165Z,102200.78
2022-12-03T06:51:47.658Z,102206.03
2022-12-03T06:54:14.161Z,102200.50
2022-12-03T06:56:45.158Z,102200.78
2022-12-03T06:59:12.213Z,102193.41
2022-12-03T07:01:38.752Z,102194.41
2022-12-03T07:04:05.767Z,102198.81
2022-12-03T07:06:32.247Z,102197.09
2022-12-03T07:08:58.779Z,102198.63
2022-12-03T07:11:31.126Z,102197.81
2022-12-03T07:14:05.494Z,102200.78
2022-12-03T07:16:33.164Z,102193.72
2022-12-03T07:18:59.940Z,102186.94
2022-12-03T07:21:26.458Z,102194.72
2022-12-03T07:23:52.997Z,102194.41
2022-12-03T07:26:19.544Z,102189.31
2022-12-03T07:28:48.145Z,102198.81
2022-12-03T07:31:15.195Z,102192.16
2022-12-03T07:33:42.301Z,102194.41
2022-12-03T07:36:09.490Z,102200.09
2022-12-03T07:38:36.313Z,102199.88
2022-12-03T07:41:02.835Z,102201.25
2022-12-03T07:43:29.430Z,102204.19
2022-12-03T07:45:55.939Z,102209.34
2022-12-03T07:48:22.426Z,102193.00
2022-12-03T07:50:49.005Z,102197.81
2022-12-03T07:53:15.622Z,102197.09
2022-12-03T07:55:42.176Z,102203.47
2022-12-03T07:58:09.337Z,102198.09
2022-12-03T08:00:35.967Z,102200.78
2022-12-03T08:03:02.522Z,102192.34
2022-12-03T08:05:29.637Z,102202.66
2022-12-03T08:07:56.686Z,102205.19
2022-12-03T08:10:25.313Z,102212.41
2022-12-03T08:12:53.627Z,102201.09
2022-12-03T08:15:26.568Z,102217.81
2022-12-03T08:18:00.658Z,102213.28
2022-12-03T08:20:31.691Z,102211.56
2022-12-03T08:22:58.922Z,102215.13
2022-12-03T08:25:28.585Z,102218.66
2022-12-03T08:28:00.139Z,102211.56
2022-12-03T08:30:26.673Z,102208.59
2022-12-03T08:32:53.833Z,102219.38
2022-12-03T08:35:27.178Z,102210.56
2022-12-03T08:37:59.577Z,102210.44
2022-12-03T08:40:37.343Z,102213.66
2022-12-03T08:43:17.977Z,102215.66
2022-12-03T08:45:45.245Z,102201.81
2022-12-03T08:48:25.417Z,102210.25
2022-12-03T08:50:57.564Z,102205.19
2022-12-03T08:53:36.692Z,102213.13
2022-12-03T08:56:20.760Z,102202.16
2022-12-03T08:58:49.417Z,102205.19
2022-12-03T09:01:29.572Z,102201.50
2022-12-03T09:03:58.849Z,102204.19
2022-12-03T09:06:25.404Z,102203.19
2022-12-03T09:08:51.899Z,102198.94
2022-12-03T09:11:18.394Z,102203.19
2022-12-03T09:13:44.924Z,102200.50
2022-12-03T09:16:11.546Z,102196.25
2022-12-03T09:18:38.180Z,102203.19
2022-12-03T09:21:04.918Z,102207.88
2022-12-03T09:23:31.425Z,102201.09
2022-12-03T09:25:58.739Z,102200.09
2022-12-03T09:28:25.310Z,102206.34
2022-12-03T09:30:51.813Z,102208.88
2022-12-03T09:33:18.348Z,102205.50
2022-12-03T09:35:44.807Z,102207.34
2022-12-03T09:38:11.462Z,102205.50
2022-12-03T09:40:40.442Z,102206.25
2022-12-03T09:43:07.035Z,102195.41
2022-12-03T09:45:34.096Z,102198.25
2022-12-03T09:48:02.023Z,102196.41
2022-12-03T09:50:28.852Z,102188.47
2022-12-03T09:52:58.395Z,102199.25
2022-12-03T09:55:27.925Z,102189.19
2022-12-03T09:57:55.646Z,102187.31
2022-12-03T10:00:28.479Z,102187.09
2022-12-03T10:02:59.378Z,102184.59
2022-12-03T10:05:25.964Z,102184.53
2022-12-03T10:07:53.233Z,102176.84
2022-12-03T10:10:21.754Z,102178.69
2022-12-03T10:12:50.538Z,102177.00
2022-12-03T10:15:19.538Z,102179.53
2022-12-03T10:17:47.713Z,102172.16
2022-12-03T10:20:18.972Z,102175.69
2022-12-03T10:22:48.564Z,102172.91
2022-12-03T10:25:19.117Z,102166.06
2022-12-03T10:28:03.810Z,102163.03
2022-12-03T10:30:30.451Z,102158.69
2022-12-03T10:32:58.445Z,102159.41
2022-12-03T10:35:37.075Z,102159.44
2022-12-03T10:38:04.914Z,102159.13
2022-12-03T10:40:34.282Z,102155.44
2022-12-03T10:43:19.002Z,102158.13
2022-12-03T10:45:47.896Z,102146.66
2022-12-03T10:48:19.548Z,102137.56
2022-12-03T10:50:54.994Z,102137.72
2022-12-03T10:53:26.053Z,102137.19
2022-12-03T10:55:52.682Z,102140.88
2022-12-03T10:58:22.605Z,102140.34
2022-12-03T11:00:51.223Z,102124.47
2022-12-03T11:03:30.016Z,102124.75
2022-12-03T11:05:57.630Z,102128.56
2022-12-03T11:08:27.470Z,102118.47
2022-12-03T11:10:59.483Z,102110.53
2022-12-03T11:13:34.856Z,102113.53
2022-12-03T11:16:03.780Z,102115.47
2022-12-03T11:18:35.961Z,102112.59
2022-12-03T11:21:09.892Z,102112.06
2022-12-03T11:23:45.218Z,102110.06
2022-12-03T11:26:39.082Z,102107.53
2022-12-03T11:29:14.001Z,102104.84
2022-12-03T11:31:46.448Z,102097.59
2022-12-03T11:34:18.862Z,102101.28
2022-12-03T11:37:10.238Z,102092.06
2022-12-03T11:39:52.191Z,102090.19
2022-12-03T11:42:27.872Z,102096.22
2022-12-03T11:45:06.657Z,102090.50
2022-12-03T11:47:36.110Z,102090.81
2022-12-03T11:50:22.740Z,102080.56
2022-12-03T11:52:55.320Z,102066.19
2022-12-03T11:56:06.511Z,102075.72
2022-12-03T11:58:33.505Z,102067.94
2022-12-03T12:01:02.068Z,102074.00
2022-12-03T12:03:33.716Z,102070.84
2022-12-03T12:06:11.112Z,102071.56
2022-12-03T12:08:51.367Z,102062.69
2022-12-03T12:11:30.708Z,102065.19
2022-12-03T12:14:04.322Z,102065.84
2022-12-03T12:16:41.270Z,102069.38
2022-12-03T12:19:27.079Z,102066.38
2022-12-03T12:21:54.523Z,102053.22
2022-12-03T12:24:45.689Z,102056.56
2022-12-03T12:27:14.814Z,102053.88
2022-12-03T12:29:43.179Z,102054.59
2022-12-03T12:32:10.100Z,102048.66
2022-12-03T12:34:38.096Z,102051.50
2022-12-03T12:37:10.084Z,102047.81
2022-12-03T12:39:36.682Z,102039.47
2022-12-03T12:42:25.674Z,102042.75
2022-12-03T12:44:52.406Z,102023.16
2022-12-03T12:47:19.077Z,102017.63
2022-12-03T12:49:51.482Z,102013.56
2022-12-03T12:52:18.322Z,102017.47
2022-12-03T12:54:44.868Z,102016.78
2022-12-03T12:57:20.495Z,102027.28
2022-12-03T12:59:47.011Z,102015.34
2022-12-03T13:02:31.785Z,102017.88
2022-12-03T13:05:01.048Z,102006.19
2022-12-03T13:07:27.604Z,102010.06
2022-12-03T13:09:56.831Z,102008.38
2022-12-03T13:12:23.752Z,102005.47
2022-12-03T13:14:52.107Z,101993.69
2022-12-03T13:17:24.546Z,101992.53
2022-12-03T13:20:00.466Z,101995.88
2022-12-03T13:22:31.837Z,101997.06
2022-12-03T13:25:06.800Z,101993.69
2022-12-03T13:27:33.256Z,101983.13
2022-12-03T13:30:06.728Z,101984.97
2022-12-03T13:32:36.068Z,101982.13
2022-12-03T13:35:05.696Z,101989.34
2022-12-03T13:37:32.305Z,101980.09
2022-12-03T13:40:09.132Z,101989.88
2022-12-03T13:42:40.444Z,101984.81
2022-12-03T13:45:15.660Z,101994.28
2022-12-03T13:47:53.187Z,101989.88
2022-12-03T13:50:37.045Z,101985.47
2022-12-03T13:53:12.790Z,101984.81
2022-12-03T13:55:44.829Z,101975.69
2022-12-03T13:58:11.330Z,101970.63
2022-12-03T14:00:37.990Z,101975.03
2022-12-03T14:03:04.953Z,101978.09
2022-12-03T14:05:31.558Z,101972.31
2022-12-03T14:08:01.671Z,101972.66
2022-12-03T14:10:29.427Z,101961.63
2022-12-03T14:12:56.142Z,101973.81
2022-12-03T14:15:22.659Z,101963.88
2022-12-03T14:17:49.189Z,101975.22
2022-12-03T14:20:15.944Z,101963.00
2022-12-03T14:22:42.449Z,101964.88
2022-12-03T14:25:09.462Z,101965.88
2022-12-03T14:27:36.290Z,101974.97
2022-12-03T14:30:03.526Z,101974.13
2022-12-03T14:32:30.138Z,101970.25
2022-12-03T14:34:56.787Z,101966.88
2022-12-03T14:37:23.316Z,101968.72
2022-12-03T14:39:49.933Z,101963.06
2022-12-03T14:42:16.791Z,101971.09
2022-12-03T14:44:52.490Z,101969.59
2022-12-03T14:47:22.562Z,101976.34
2022-12-03T14:49:50.479Z,101970.56
2022-12-03T14:52:18.017Z,101972.28
2022-12-03T14:54:45.218Z,101963.16
2022-12-03T14:57:13.477Z,101964.91
2022-12-03T14:59:44.235Z,101964.19
2022-12-03T15:02:11.986Z,101964.19
2022-12-03T15:04:40.072Z,101954.25
2022-12-03T15:07:07.329Z,101952.56
2022-12-03T15:09:34.098Z,101959.66
2022-12-03T15:12:02.892Z,101953.41
2022-12-03T15:14:29.476Z,101951.72
2022-12-03T15:16:56.166Z,101952.72
2022-12-03T15:19:22.751Z,101937.19
2022-12-03T15:21:49.198Z,101937.56
2022-12-03T15:24:15.722Z,101937.88
2022-12-03T15:26:57.283Z,101942.25
2022-12-03T15:29:23.767Z,101944.63
2022-12-03T15:31:50.252Z,101958.66
2022-12-03T15:34:22.202Z,101944.63
2022-12-03T15:36:49.568Z,101941.91
2022-12-03T15:39:16.042Z,101941.25
2022-12-03T15:41:42.613Z,101948.66
2022-12-03T15:44:09.127Z,101947.63
2022-12-03T15:46:35.741Z,101942.56
2022-12-03T15:49:02.358Z,101947.97
2022-12-03T15:51:28.837Z,101942.56
2022-12-03T15:53:55.295Z,101950.66
2022-12-03T15:56:21.760Z,101954.34
2022-12-03T15:58:48.361Z,101946.50
2022-12-03T16:01:15.146Z,101954.06
2022-12-03T16:03:41.787Z,101945.00
2022-12-03T16:06:08.793Z,101946.78
2022-12-03T16:08:35.383Z,101943.28
2022-12-03T16:11:01.949Z,101948.13
2022-12-03T16:13:28.430Z,101948.13
2022-12-03T16:15:54.998Z,101947.28
2022-12-03T16:18:21.494Z,101958.06
2022-12-03T16:20:48.011Z,101957.75
2022-12-03T16:23:14.522Z,101954.53
2022-12-03T16:25:40.984Z,101945.31
2022-12-03T16:28:07.526Z,101945.28
2022-12-03T16:30:34.264Z,101949.47
2022-12-03T16:33:00.905Z,101939.84
2022-12-03T16:35:27.579Z,101939.34
2022-12-03T16:37:54.115Z,101945.94
2022-12-03T16:40:20.639Z,101942.19
2022-12-03T16:42:47.176Z,101938.84
2022-12-03T16:45:28.837Z,101946.66
2022-12-03T16:47:55.304Z,101938.84
2022-12-03T16:50:29.183Z,101933.44
2022-12-03T16:52:56.661Z,101940.53
2022-12-03T16:55:23.219Z,101937.13
2022-12-03T16:57:49.770Z,101934.44
2022-12-03T17:00:16.955Z,101940.41
2022-12-03T17:02:43.572Z,101936.94
2022-12-03T17:05:10.159Z,101938.94
2022-12-03T17:07:36.727Z,101933.53
2022-12-03T17:10:04.701Z,101945.28
2022-12-03T17:12:54.203Z,101936.63
2022-12-03T17:15:18.935Z,101931.06
2022-12-03T17:17:45.389Z,101930.56
2022-12-03T17:20:13.354Z,101929.00
2022-12-03T17:22:40.321Z,101945.34
2022-12-03T17:25:07.619Z,101940.94
2022-12-03T17:27:34.093Z,101949.47
2022-12-03T17:30:00.765Z,101942.41
2022-12-03T17:32:27.310Z,101937.13
2022-12-03T17:34:53.923Z,101928.31
2022-12-03T17:37:20.468Z,101928.47
2022-12-03T17:39:46.997Z,101922.56
2022-12-03T17:42:13.548Z,101935.63
2022-12-03T17:44:40.103Z,101933.00
2022-12-03T17:47:06.676Z,101931.34
2022-12-03T17:49:33.219Z,101922.88
2022-12-03T17:51:59.751Z,101920.88
2022-12-03T17:54:43.286Z,101919.19
2022-12-03T17:57:12.736Z,101908.19
2022-12-03T17:59:39.250Z,101907.91
2022-12-03T18:02:06.248Z,101914.94
2022-12-03T18:04:32.959Z,101924.13
2022-12-03T18:07:02.318Z,101913.16
2022-12-03T18:09:29.317Z,101919.41
2022-12-03T18:11:55.841Z,101916.19
2022-12-03T18:14:22.311Z,101911.16
2022-12-03T18:16:48.812Z,101903.31
2022-12-03T18:19:15.471Z,101914.34
2022-12-03T18:21:42.077Z,101909.56
2022-12-03T18:24:09.382Z,101921.03
2022-12-03T18:26:35.919Z,101916.91
2022-12-03T18:29:02.534Z,101910.09
2022-12-03T18:31:29.188Z,101910.25
2022-12-03T18:33:55.787Z,101911.94
2022-12-03T18:36:25.684Z,101914.81
2022-12-03T18:38:55.191Z,101912.97
2022-12-03T18:41:23.338Z,101908.72
2022-12-03T18:43:50.816Z,101911.25
2022-12-03T18:46:51.284Z,101905.03
2022-12-03T18:49:05.490Z,101906.19
2022-12-03T18:51:32.031Z,101910.41
2022-12-03T18:53:58.535Z,101907.03
2022-12-03T18:56:25.139Z,101900.81
2022-12-03T18:58:51.735Z,101905.34
2022-12-03T19:01:21.171Z,101909.03
2022-12-03T19:03:49.061Z,101905.88
2022-12-03T19:06:19.067Z,101904.34
2022-12-03T19:08:48.149Z,101900.75
2022-12-03T19:11:14.953Z,101897.88
2022-12-03T19:13:42.353Z,101911.06
2022-12-03T19:16:10.228Z,101910.59
2022-12-03T19:18:36.787Z,101898.91
2022-12-03T19:21:08.032Z,101905.66
2022-12-03T19:23:35.703Z,101893.72
2022-12-03T19:26:03.753Z,101890.97
2022-12-03T19:28:30.727Z,101895.88
2022-12-03T19:31:08.952Z,101904.28
2022-12-03T19:33:35.865Z,101894.78
2022-12-03T19:36:04.213Z,101902.38
2022-12-03T19:38:31.265Z,101894.50
2022-12-03T19:41:00.550Z,101898.91
2022-12-03T19:43:27.386Z,101901.13
2022-12-03T19:45:54.574Z,101886.59
2022-12-03T19:48:22.897Z,101897.00
2022-12-03T19:51:07.921Z,101897.53
2022-12-03T19:53:40.497Z,101885.06
2022-12-03T19:56:09.827Z,101888.75
2022-12-03T19:58:37.099Z,101888.47
2022-12-03T20:01:20.363Z,101894.84
2022-12-03T20:03:48.887Z,101897.16
2022-12-03T20:06:16.967Z,101891.19
2022-12-03T20:08:43.821Z,101888.75
2022-12-03T20:11:19.719Z,101897.25
2022-12-03T20:13:48.106Z,101894.56
2022-12-03T20:16:15.603Z,101886.00
2022-12-03T20:18:46.256Z,101888.41
2022-12-03T20:21:14.339Z,101896.56
2022-12-03T20:23:41.655Z,101877.25
2022-12-03T20:26:10.252Z,101890.19
2022-12-03T20:28:37.297Z,101890.88
2022-12-03T20:31:11.770Z,101887.59
2022-12-03T20:33:39.489Z,101885.06
2022-12-03T20:36:06.586Z,101884.66
2022-12-03T20:38:33.478Z,101882.38
2022-12-03T20:41:08.396Z,101880.94
2022-12-03T20:43:35.590Z,101870.38
2022-12-03T20:46:09.256Z,101882.84
2022-12-03T20:48:35.926Z,101883.06
2022-12-03T20:51:06.828Z,101884.13
2022-12-03T20:53:33.853Z,101864.16
2022-12-03T20:56:01.350Z,101871.53
2022-12-03T20:58:28.594Z,101865.47
2022-12-03T21:00:55.145Z,101859.78
2022-12-03T21:03:22.073Z,101857.41
2022-12-03T21:05:48.620Z,101861.09
2022-12-03T21:08:15.168Z,101853.00
2022-12-03T21:10:44.912Z,101866.69
2022-12-03T21:13:16.481Z,101866.41
2022-12-03T21:15:44.010Z,101863.84
2022-12-03T21:18:12.575Z,101858.31
2022-12-03T21:20:44.006Z,101857.59
2022-12-03T21:23:11.229Z,101845.66
2022-12-03T21:25:38.089Z,101849.84
2022-12-03T21:28:06.579Z,101850.63
2022-12-03T21:30:34.035Z,101845.88
2022-12-03T21:33:00.549Z,101843.75
2022-12-03T21:35:27.083Z,101841.53
2022-12-03T21:37:53.566Z,101845.25
2022-12-03T21:40:20.562Z,101846.13
2022-12-03T21:42:47.264Z,101845.84
2022-12-03T21:45:14.195Z,101854.59
2022-12-03T21:47:40.791Z,101842.25
2022-12-03T21:50:11.056Z,101848.88
2022-12-03T21:52:37.575Z,101847.03
2022-12-03T21:55:04.271Z,101857.94
2022-12-03T21:57:30.874Z,101854.06
2022-12-03T21:59:57.696Z,101849.38
2022-12-03T22:02:24.322Z,101843.69
2022-12-03T22:04:51.018Z,101849.41
2022-12-03T22:07:17.602Z,101842.50
2022-12-03T22:09:44.119Z,101846.56
2022-12-03T22:12:10.642Z,101837.78
2022-12-03T22:14:37.394Z,101849.66
2022-12-03T22:17:03.903Z,101845.88
2022-12-03T22:19:30.378Z,101838.50
2022-12-03T22:21:56.993Z,101843.50
2022-12-03T22:24:23.962Z,101845.47
2022-12-03T22:26:52.158Z,101840.19
2022-12-03T22:29:18.712Z,101846.31
2022-12-03T22:31:45.265Z,101836.72
2022-12-03T22:34:11.828Z,101845.88
2022-12-03T22:36:38.377Z,101845.72
2022-12-03T22:39:04.849Z,101828.34
2022-12-03T22:41:31.396Z,101835.03
2022-12-03T22:43:57.945Z,101831.56
2022-12-03T22:46:24.528Z,101842.91
2022-12-03T22:48:51.059Z,101839.88
2022-12-03T22:51:21.150Z,101832.25
2022-12-03T22:53:52.863Z,101830.94
2022-12-03T22:56:19.318Z,101831.94
2022-12-03T22:58:45.829Z,101831.28
2022-12-03T23:01:24.418Z,101837.75
2022-12-03T23:03:51.080Z,101827.84
2022-12-03T23:06:18.722Z,101825.69
2022-12-03T23:08:45.461Z,101819.31
2022-12-03T23:11:12.072Z,101821.16
2022-12-03T23:13:39.197Z,101830.81
2022-12-03T23:16:06.574Z,101825.56
2022-12-03T23:18:33.464Z,101824.84
2022-12-03T23:21:00.114Z,101826.19
2022-12-03T23:23:27.974Z,101828.84
2022-12-03T23:25:59.477Z,101828.66
2022-12-03T23:28:27.285Z,101812.41
2022-12-03T23:30:54.220Z,101820.00
2022-12-03T23:33:21.469Z,101822.66
2022-12-03T23:35:48.258Z,101813.56
2022-12-03T23:38:15.421Z,101816.91
2022-12-03T23:40:47.744Z,101819.59
2022-12-03T23:43:14.962Z,101817.84
2022-12-03T23:45:41.506Z,101811.13
2022-12-03T23:48:08.002Z,101816.72
2022-12-03T23:50:34.868Z,101815.59
2022-12-03T23:53:01.447Z,101805.81
2022-12-03T23:55:27.934Z,101799.91
2022-12-03T23:57:54.524Z,101810.06
